sensor_id;sensor_type;location;lat;lon;timestamp;temperature;humidity
1447;DHT22;717;51.522;7.266;2024-03-02T00:02:19;12.30;99.90
1447;DHT22;717;51.522;7.266;2024-03-02T00:04:50;12.30;99.90
1447;DHT22;717;51.522;7.266;2024-03-02T00:07:20;12.30;99.90
1447;DHT22;717;51.522;7.266;2024-03-02T00:09:53;12.30;99.90
1447;DHT22;717;51.522;7.266;2024-03-02T00:12:24;12.30;99.90
1447;DHT22;717;51.522;7.266;2024-03-02T00:14:57;12.30;99.90
1447;DHT22;717;51.522;7.266;2024-03-02T00:17:30;12.30;99.90
1447;DHT22;717;51.522;7.266;2024-03-02T00:20:00;12.30;99.90
1447;DHT22;717;51.522;7.266;2024-03-02T00:22:35;12.30;99.90
1447;DHT22;717;51.522;7.266;2024-03-02T00:25:07;12.30;99.90
1447;DHT22;717;51.522;7.266;2024-03-02T00:27:39;12.30;99.90
1447;DHT22;717;51.522;7.266;2024-03-02T00:30:40;12.30;99.90
1447;DHT22;717;51.522;7.266;2024-03-02T00:33:14;12.40;99.90
1447;DHT22;717;51.522;7.266;2024-03-02T00:35:45;12.40;99.90
1447;DHT22;717;51.522;7.266;2024-03-02T00:38:15;12.40;99.90
1447;DHT22;717;51.522;7.266;2024-03-02T00:40:46;12.30;99.90
1447;DHT22;717;51.522;7.266;2024-03-02T00:43:39;12.30;99.90
1447;DHT22;717;51.522;7.266;2024-03-02T00:46:19;12.20;99.90
1447;DHT22;717;51.522;7.266;2024-03-02T00:48:55;12.30;99.90
1447;DHT22;717;51.522;7.266;2024-03-02T00:51:27;12.30;99.90
1447;DHT22;717;51.522;7.266;2024-03-02T00:53:59;12.30;99.90
1447;DHT22;717;51.522;7.266;2024-03-02T00:56:32;12.30;99.90
1447;DHT22;717;51.522;7.266;2024-03-02T00:59:03;12.30;99.90
1447;DHT22;717;51.522;7.266;2024-03-02T01:01:36;12.30;99.90
1447;DHT22;717;51.522;7.266;2024-03-02T01:04:06;12.30;99.90
1447;DHT22;717;51.522;7.266;2024-03-02T01:06:37;12.20;99.90
1447;DHT22;717;51.522;7.266;2024-03-02T01:09:07;12.30;99.90
1447;DHT22;717;51.522;7.266;2024-03-02T01:11:40;12.30;99.90
1447;DHT22;717;51.522;7.266;2024-03-02T01:14:10;12.20;99.90
1447;DHT22;717;51.522;7.266;2024-03-02T01:16:43;12.20;99.90
1447;DHT22;717;51.522;7.266;2024-03-02T01:19:13;12.30;99.90
1447;DHT22;717;51.522;7.266;2024-03-02T01:21:44;12.20;99.90
1447;DHT22;717;51.522;7.266;2024-03-02T01:24:15;12.30;99.90
1447;DHT22;717;51.522;7.266;2024-03-02T01:26:45;12.20;99.90
1447;DHT22;717;51.522;7.266;2024-03-02T01:29:15;12.30;99.90
1447;DHT22;717;51.522;7.266;2024-03-02T01:31:49;12.30;99.90
1447;DHT22;717;51.522;7.266;2024-03-02T01:34:21;12.30;99.90
1447;DHT22;717;51.522;7.266;2024-03-02T01:36:52;12.30;99.90
1447;DHT22;717;51.522;7.266;2024-03-02T01:39:22;12.30;99.90
1447;DHT22;717;51.522;7.266;2024-03-02T01:41:53;12.30;99.90
1447;DHT22;717;51.522;7.266;2024-03-02T01:44:23;12.30;99.90
1447;DHT22;717;51.522;7.266;2024-03-02T01:46:56;12.30;99.90
1447;DHT22;717;51.522;7.266;2024-03-02T01:49:27;12.30;99.90
1447;DHT22;717;51.522;7.266;2024-03-02T01:51:57;12.40;99.90
1447;DHT22;717;51.522;7.266;2024-03-02T01:54:28;12.40;99.90
1447;DHT22;717;51.522;7.266;2024-03-02T01:56:58;12.40;99.90
1447;DHT22;717;51.522;7.266;2024-03-02T01:59:28;12.40;99.90
1447;DHT22;717;51.522;7.266;2024-03-02T02:02:02;12.40;99.90
1447;DHT22;717;51.522;7.266;2024-03-02T02:04:32;12.40;99.90
1447;DHT22;717;51.522;7.266;2024-03-02T02:07:03;12.40;99.90
1447;DHT22;717;51.522;7.266;2024-03-02T02:09:34;12.50;99.90
1447;DHT22;717;51.522;7.266;2024-03-02T02:12:05;12.40;99.90
1447;DHT22;717;51.522;7.266;2024-03-02T02:14:35;12.40;99.90
1447;DHT22;717;51.522;7.266;2024-03-02T02:17:09;12.40;99.90
1447;DHT22;717;51.522;7.266;2024-03-02T02:19:40;12.40;99.90
1447;DHT22;717;51.522;7.266;2024-03-02T02:22:13;12.40;99.90
1447;DHT22;717;51.522;7.266;2024-03-02T02:24:44;12.40;99.90
1447;DHT22;717;51.522;7.266;2024-03-02T02:27:14;12.40;99.90
1447;DHT22;717;51.522;7.266;2024-03-02T02:29:44;12.40;99.90
1447;DHT22;717;51.522;7.266;2024-03-02T02:32:15;12.40;99.90
1447;DHT22;717;51.522;7.266;2024-03-02T02:34:45;12.40;99.90
1447;DHT22;717;51.522;7.266;2024-03-02T02:37:18;12.40;99.90
1447;DHT22;717;51.522;7.266;2024-03-02T02:39:49;12.40;99.90
1447;DHT22;717;51.522;7.266;2024-03-02T02:42:23;12.40;99.90
1447;DHT22;717;51.522;7.266;2024-03-02T02:44:53;12.40;99.90
1447;DHT22;717;51.522;7.266;2024-03-02T02:47:24;12.40;99.90
1447;DHT22;717;51.522;7.266;2024-03-02T02:49:56;12.40;99.90
1447;DHT22;717;51.522;7.266;2024-03-02T02:52:34;12.40;99.90
1447;DHT22;717;51.522;7.266;2024-03-02T02:55:08;12.40;99.90
1447;DHT22;717;51.522;7.266;2024-03-02T02:57:40;12.40;99.90
1447;DHT22;717;51.522;7.266;2024-03-02T03:00:12;12.40;99.90
1447;DHT22;717;51.522;7.266;2024-03-02T03:02:47;12.40;99.90
1447;DHT22;717;51.522;7.266;2024-03-02T03:05:18;12.40;99.90
1447;DHT22;717;51.522;7.266;2024-03-02T03:07:52;12.40;99.90
1447;DHT22;717;51.522;7.266;2024-03-02T03:10:22;12.40;99.90
1447;DHT22;717;51.522;7.266;2024-03-02T03:12:54;12.40;99.90
1447;DHT22;717;51.522;7.266;2024-03-02T03:15:25;12.40;99.90
1447;DHT22;717;51.522;7.266;2024-03-02T03:17:55;12.40;99.90
1447;DHT22;717;51.522;7.266;2024-03-02T03:20:26;12.40;99.90
1447;DHT22;717;51.522;7.266;2024-03-02T03:22:59;12.50;99.90
1447;DHT22;717;51.522;7.266;2024-03-02T03:25:31;12.50;99.90
1447;DHT22;717;51.522;7.266;2024-03-02T03:28:01;12.50;99.90
1447;DHT22;717;51.522;7.266;2024-03-02T03:30:32;12.50;99.90
1447;DHT22;717;51.522;7.266;2024-03-02T03:33:03;12.50;99.90
1447;DHT22;717;51.522;7.266;2024-03-02T03:35:34;12.50;99.90
1447;DHT22;717;51.522;7.266;2024-03-02T03:38:07;12.50;99.90
1447;DHT22;717;51.522;7.266;2024-03-02T03:40:37;12.60;99.90
1447;DHT22;717;51.522;7.266;2024-03-02T03:43:08;12.60;99.90
1447;DHT22;717;51.522;7.266;2024-03-02T03:45:38;12.60;99.90
1447;DHT22;717;51.522;7.266;2024-03-02T03:48:09;12.60;99.90
1447;DHT22;717;51.522;7.266;2024-03-02T03:50:39;12.60;99.90
1447;DHT22;717;51.522;7.266;2024-03-02T03:53:12;12.60;99.90
1447;DHT22;717;51.522;7.266;2024-03-02T03:55:42;12.60;99.90
1447;DHT22;717;51.522;7.266;2024-03-02T03:58:14;12.60;99.90
1447;DHT22;717;51.522;7.266;2024-03-02T04:00:49;12.60;99.90
1447;DHT22;717;51.522;7.266;2024-03-02T04:03:19;12.70;99.90
1447;DHT22;717;51.522;7.266;2024-03-02T04:05:49;12.60;99.90
1447;DHT22;717;51.522;7.266;2024-03-02T04:08:22;12.60;99.90
1447;DHT22;717;51.522;7.266;2024-03-02T04:10:53;12.70;99.90
1447;DHT22;717;51.522;7.266;2024-03-02T04:13:23;12.60;99.90
1447;DHT22;717;51.522;7.266;2024-03-02T04:15:54;12.70;99.90
1447;DHT22;717;51.522;7.266;2024-03-02T04:18:24;12.70;99.90
1447;DHT22;717;51.522;7.266;2024-03-02T04:20:55;12.60;99.90
1447;DHT22;717;51.522;7.266;2024-03-02T04:23:29;12.60;99.90
1447;DHT22;717;51.522;7.266;2024-03-02T04:25:59;12.60;99.90
1447;DHT22;717;51.522;7.266;2024-03-02T04:28:30;12.60;99.90
1447;DHT22;717;51.522;7.266;2024-03-02T04:31:00;12.70;99.90
1447;DHT22;717;51.522;7.266;2024-03-02T04:33:31;12.60;99.90
1447;DHT22;717;51.522;7.266;2024-03-02T04:36:02;12.60;99.90
1447;DHT22;717;51.522;7.266;2024-03-02T04:38:35;12.60;99.90
1447;DHT22;717;51.522;7.266;2024-03-02T04:41:06;12.70;99.90
1447;DHT22;717;51.522;7.266;2024-03-02T04:43:37;12.70;99.90
1447;DHT22;717;51.522;7.266;2024-03-02T04:46:07;12.60;99.90
1447;DHT22;717;51.522;7.266;2024-03-02T04:48:38;12.60;99.90
1447;DHT22;717;51.522;7.266;2024-03-02T04:51:09;12.60;99.90
1447;DHT22;717;51.522;7.266;2024-03-02T04:53:43;12.60;99.90
1447;DHT22;717;51.522;7.266;2024-03-02T04:56:13;12.60;99.90
1447;DHT22;717;51.522;7.266;2024-03-02T04:59:06;12.60;99.90
1447;DHT22;717;51.522;7.266;2024-03-02T05:01:37;12.60;99.90
1447;DHT22;717;51.522;7.266;2024-03-02T05:04:07;12.60;99.90
1447;DHT22;717;51.522;7.266;2024-03-02T05:06:39;12.60;99.90
1447;DHT22;717;51.522;7.266;2024-03-02T05:09:12;12.60;99.90
1447;DHT22;717;51.522;7.266;2024-03-02T05:11:43;12.60;99.90
1447;DHT22;717;51.522;7.266;2024-03-02T05:14:30;12.60;99.90
1447;DHT22;717;51.522;7.266;2024-03-02T05:17:01;12.70;99.90
1447;DHT22;717;51.522;7.266;2024-03-02T05:19:31;12.60;99.90
1447;DHT22;717;51.522;7.266;2024-03-02T05:22:01;12.70;99.90
1447;DHT22;717;51.522;7.266;2024-03-02T05:24:35;12.70;99.90
1447;DHT22;717;51.522;7.266;2024-03-02T05:27:06;12.70;99.90
1447;DHT22;717;51.522;7.266;2024-03-02T05:29:36;12.70;99.90
1447;DHT22;717;51.522;7.266;2024-03-02T05:32:07;12.70;99.90
1447;DHT22;717;51.522;7.266;2024-03-02T05:34:37;12.70;99.90
1447;DHT22;717;51.522;7.266;2024-03-02T05:37:08;12.70;99.90
1447;DHT22;717;51.522;7.266;2024-03-02T05:39:41;12.60;99.90
1447;DHT22;717;51.522;7.266;2024-03-02T05:42:12;12.70;99.90
1447;DHT22;717;51.522;7.266;2024-03-02T05:44:44;12.70;99.90
1447;DHT22;717;51.522;7.266;2024-03-02T05:47:14;12.60;99.90
1447;DHT22;717;51.522;7.266;2024-03-02T05:49:45;12.60;99.90
1447;DHT22;717;51.522;7.266;2024-03-02T05:52:15;12.60;99.90
1447;DHT22;717;51.522;7.266;2024-03-02T05:54:48;12.60;99.90
1447;DHT22;717;51.522;7.266;2024-03-02T05:57:19;12.60;99.90
1447;DHT22;717;51.522;7.266;2024-03-02T06:00:13;12.50;99.90
1447;DHT22;717;51.522;7.266;2024-03-02T06:02:45;12.50;99.90
1447;DHT22;717;51.522;7.266;2024-03-02T06:05:15;12.40;99.90
1447;DHT22;717;51.522;7.266;2024-03-02T06:07:46;12.40;99.90
1447;DHT22;717;51.522;7.266;2024-03-02T06:10:19;12.40;99.90
1447;DHT22;717;51.522;7.266;2024-03-02T06:12:49;12.40;99.90
1447;DHT22;717;51.522;7.266;2024-03-02T06:15:20;12.40;99.90
1447;DHT22;717;51.522;7.266;2024-03-02T06:17:50;12.40;99.90
1447;DHT22;717;51.522;7.266;2024-03-02T06:20:21;12.40;99.90
1447;DHT22;717;51.522;7.266;2024-03-02T06:22:51;12.40;99.90
1447;DHT22;717;51.522;7.266;2024-03-02T06:25:26;12.40;99.90
1447;DHT22;717;51.522;7.266;2024-03-02T06:27:56;12.40;99.90
1447;DHT22;717;51.522;7.266;2024-03-02T06:30:27;12.40;99.90
1447;DHT22;717;51.522;7.266;2024-03-02T06:32:57;12.30;99.90
1447;DHT22;717;51.522;7.266;2024-03-02T06:35:28;12.30;99.90
1447;DHT22;717;51.522;7.266;2024-03-02T06:37:58;12.30;99.90
1447;DHT22;717;51.522;7.266;2024-03-02T06:40:31;12.30;99.90
1447;DHT22;717;51.522;7.266;2024-03-02T06:43:01;12.30;99.90
1447;DHT22;717;51.522;7.266;2024-03-02T06:45:32;12.30;99.90
1447;DHT22;717;51.522;7.266;2024-03-02T06:48:03;12.30;99.90
1447;DHT22;717;51.522;7.266;2024-03-02T06:50:33;12.30;99.90
1447;DHT22;717;51.522;7.266;2024-03-02T06:53:04;12.30;99.90
1447;DHT22;717;51.522;7.266;2024-03-02T06:55:37;12.30;99.90
1447;DHT22;717;51.522;7.266;2024-03-02T06:58:07;12.30;99.90
1447;DHT22;717;51.522;7.266;2024-03-02T07:00:38;12.40;99.90
1447;DHT22;717;51.522;7.266;2024-03-02T07:03:08;12.40;99.90
1447;DHT22;717;51.522;7.266;2024-03-02T07:05:40;12.40;99.90
1447;DHT22;717;51.522;7.266;2024-03-02T07:08:10;12.40;99.90
1447;DHT22;717;51.522;7.266;2024-03-02T07:10:43;12.50;99.90
1447;DHT22;717;51.522;7.266;2024-03-02T07:13:14;12.40;99.90
1447;DHT22;717;51.522;7.266;2024-03-02T07:15:44;12.50;99.90
1447;DHT22;717;51.522;7.266;2024-03-02T07:18:33;12.50;99.90
1447;DHT22;717;51.522;7.266;2024-03-02T07:21:08;12.50;99.90
1447;DHT22;717;51.522;7.266;2024-03-02T07:23:37;12.50;99.90
1447;DHT22;717;51.522;7.266;2024-03-02T07:26:10;12.40;99.90
1447;DHT22;717;51.522;7.266;2024-03-02T07:28:45;12.40;99.90
1447;DHT22;717;51.522;7.266;2024-03-02T07:31:15;12.40;99.90
1447;DHT22;717;51.522;7.266;2024-03-02T07:33:45;12.40;99.90
1447;DHT22;717;51.522;7.266;2024-03-02T07:36:16;12.40;99.90
1447;DHT22;717;51.522;7.266;2024-03-02T07:38:46;12.50;99.90
1447;DHT22;717;51.522;7.266;2024-03-02T07:41:20;12.50;99.90
1447;DHT22;717;51.522;7.266;2024-03-02T07:43:50;12.50;99.90
1447;DHT22;717;51.522;7.266;2024-03-02T07:46:20;12.50;99.90
1447;DHT22;717;51.522;7.266;2024-03-02T07:48:50;12.50;99.90
1447;DHT22;717;51.522;7.266;2024-03-02T07:51:21;12.50;99.90
1447;DHT22;717;51.522;7.266;2024-03-02T07:53:51;12.50;99.90
1447;DHT22;717;51.522;7.266;2024-03-02T07:56:23;12.60;99.90
1447;DHT22;717;51.522;7.266;2024-03-02T07:58:53;12.60;99.90
1447;DHT22;717;51.522;7.266;2024-03-02T08:01:24;12.60;99.90
1447;DHT22;717;51.522;7.266;2024-03-02T08:03:54;12.60;99.90
1447;DHT22;717;51.522;7.266;2024-03-02T08:06:25;12.60;99.90
1447;DHT22;717;51.522;7.266;2024-03-02T08:08:57;12.60;99.90
1447;DHT22;717;51.522;7.266;2024-03-02T08:11:30;12.70;99.90
1447;DHT22;717;51.522;7.266;2024-03-02T08:14:00;12.70;99.90
1447;DHT22;717;51.522;7.266;2024-03-02T08:16:30;12.80;99.90
1447;DHT22;717;51.522;7.266;2024-03-02T08:19:00;12.80;99.90
1447;DHT22;717;51.522;7.266;2024-03-02T08:21:30;12.80;99.90
1447;DHT22;717;51.522;7.266;2024-03-02T08:24:02;12.80;99.90
1447;DHT22;717;51.522;7.266;2024-03-02T08:26:35;12.90;99.90
1447;DHT22;717;51.522;7.266;2024-03-02T08:29:05;12.90;99.90
1447;DHT22;717;51.522;7.266;2024-03-02T08:31:35;13.00;99.90
1447;DHT22;717;51.522;7.266;2024-03-02T08:34:08;13.00;99.90
1447;DHT22;717;51.522;7.266;2024-03-02T08:36:38;13.00;99.90
1447;DHT22;717;51.522;7.266;2024-03-02T08:39:08;13.00;99.90
1447;DHT22;717;51.522;7.266;2024-03-02T08:41:46;13.10;99.90
1447;DHT22;717;51.522;7.266;2024-03-02T08:44:16;13.10;99.90
1447;DHT22;717;51.522;7.266;2024-03-02T08:46:47;13.10;99.90
1447;DHT22;717;51.522;7.266;2024-03-02T08:49:17;13.10;99.90
1447;DHT22;717;51.522;7.266;2024-03-02T08:51:47;13.10;99.90
1447;DHT22;717;51.522;7.266;2024-03-02T08:54:22;13.10;99.90
1447;DHT22;717;51.522;7.266;2024-03-02T08:56:55;13.20;99.90
1447;DHT22;717;51.522;7.266;2024-03-02T08:59:25;13.20;99.90
1447;DHT22;717;51.522;7.266;2024-03-02T09:01:55;13.20;99.90
1447;DHT22;717;51.522;7.266;2024-03-02T09:04:25;13.30;99.90
1447;DHT22;717;51.522;7.266;2024-03-02T09:06:59;13.30;99.90
1447;DHT22;717;51.522;7.266;2024-03-02T09:09:29;13.40;99.90
1447;DHT22;717;51.522;7.266;2024-03-02T09:12:02;13.30;99.90
1447;DHT22;717;51.522;7.266;2024-03-02T09:14:33;13.30;99.90
1447;DHT22;717;51.522;7.266;2024-03-02T09:17:03;13.30;99.90
1447;DHT22;717;51.522;7.266;2024-03-02T09:19:34;13.40;99.90
1447;DHT22;717;51.522;7.266;2024-03-02T09:22:04;13.50;99.90
1447;DHT22;717;51.522;7.266;2024-03-02T09:24:34;13.50;99.90
1447;DHT22;717;51.522;7.266;2024-03-02T09:27:07;13.50;99.90
1447;DHT22;717;51.522;7.266;2024-03-02T09:29:37;13.50;99.90
1447;DHT22;717;51.522;7.266;2024-03-02T09:32:13;13.50;99.90
1447;DHT22;717;51.522;7.266;2024-03-02T09:34:43;13.60;99.90
1447;DHT22;717;51.522;7.266;2024-03-02T09:37:15;13.70;99.90
1447;DHT22;717;51.522;7.266;2024-03-02T09:39:45;13.70;99.90
1447;DHT22;717;51.522;7.266;2024-03-02T09:42:18;13.70;99.90
1447;DHT22;717;51.522;7.266;2024-03-02T09:44:50;13.80;99.90
1447;DHT22;717;51.522;7.266;2024-03-02T09:47:20;13.80;99.90
1447;DHT22;717;51.522;7.266;2024-03-02T09:49:50;13.80;99.90
1447;DHT22;717;51.522;7.266;2024-03-02T09:52:21;13.80;99.90
1447;DHT22;717;51.522;7.266;2024-03-02T09:54:52;13.90;99.90
1447;DHT22;717;51.522;7.266;2024-03-02T09:57:24;13.90;99.90
1447;DHT22;717;51.522;7.266;2024-03-02T09:59:54;13.90;99.90
1447;DHT22;717;51.522;7.266;2024-03-02T10:02:24;14.00;99.90
1447;DHT22;717;51.522;7.266;2024-03-02T10:04:54;14.00;99.90
1447;DHT22;717;51.522;7.266;2024-03-02T10:07:24;14.10;99.90
1447;DHT22;717;51.522;7.266;2024-03-02T10:09:54;14.10;99.90
1447;DHT22;717;51.522;7.266;2024-03-02T10:12:27;14.20;99.90
1447;DHT22;717;51.522;7.266;2024-03-02T10:15:03;14.20;99.90
1447;DHT22;717;51.522;7.266;2024-03-02T10:17:34;14.30;99.90
1447;DHT22;717;51.522;7.266;2024-03-02T10:20:23;14.30;99.90
1447;DHT22;717;51.522;7.266;2024-03-02T10:22:53;14.40;99.90
1447;DHT22;717;51.522;7.266;2024-03-02T10:25:30;14.50;99.90
1447;DHT22;717;51.522;7.266;2024-03-02T10:28:07;14.60;99.90
1447;DHT22;717;51.522;7.266;2024-03-02T10:30:37;14.70;99.90
1447;DHT22;717;51.522;7.266;2024-03-02T10:33:07;14.70;99.90
1447;DHT22;717;51.522;7.266;2024-03-02T10:35:38;14.80;99.90
1447;DHT22;717;51.522;7.266;2024-03-02T10:38:11;14.80;99.90
1447;DHT22;717;51.522;7.266;2024-03-02T10:40:41;14.90;99.90
1447;DHT22;717;51.522;7.266;2024-03-02T10:43:19;14.90;99.90
1447;DHT22;717;51.522;7.266;2024-03-02T10:45:50;15.00;99.90
1447;DHT22;717;51.522;7.266;2024-03-02T10:48:21;15.00;99.90
1447;DHT22;717;51.522;7.266;2024-03-02T10:50:51;15.10;99.90
1447;DHT22;717;51.522;7.266;2024-03-02T10:53:21;15.10;99.90
1447;DHT22;717;51.522;7.266;2024-03-02T10:55:57;15.20;99.90
1447;DHT22;717;51.522;7.266;2024-03-02T10:58:33;15.30;99.90
1447;DHT22;717;51.522;7.266;2024-03-02T11:01:03;15.40;99.90
1447;DHT22;717;51.522;7.266;2024-03-02T11:03:36;15.50;99.90
1447;DHT22;717;51.522;7.266;2024-03-02T11:06:09;15.50;99.90
1447;DHT22;717;51.522;7.266;2024-03-02T11:08:42;15.60;99.90
1447;DHT22;717;51.522;7.266;2024-03-02T11:11:15;15.70;99.90
1447;DHT22;717;51.522;7.266;2024-03-02T11:13:53;15.80;99.90
1447;DHT22;717;51.522;7.266;2024-03-02T11:16:33;15.90;99.90
1447;DHT22;717;51.522;7.266;2024-03-02T11:19:05;16.00;99.90
1447;DHT22;717;51.522;7.266;2024-03-02T11:21:39;16.00;99.90
1447;DHT22;717;51.522;7.266;2024-03-02T11:24:33;16.10;99.90
1447;DHT22;717;51.522;7.266;2024-03-02T11:27:05;16.20;99.90
1447;DHT22;717;51.522;7.266;2024-03-02T11:29:47;16.30;99.90
1447;DHT22;717;51.522;7.266;2024-03-02T11:32:20;16.40;99.90
1447;DHT22;717;51.522;7.266;2024-03-02T11:34:51;16.50;99.90
1447;DHT22;717;51.522;7.266;2024-03-02T11:37:22;16.50;99.90
1447;DHT22;717;51.522;7.266;2024-03-02T11:39:54;16.60;99.90
1447;DHT22;717;51.522;7.266;2024-03-02T11:42:24;16.70;99.90
1447;DHT22;717;51.522;7.266;2024-03-02T11:44:57;16.80;99.90
1447;DHT22;717;51.522;7.266;2024-03-02T11:47:31;16.90;99.90
1447;DHT22;717;51.522;7.266;2024-03-02T11:50:06;17.00;99.90
1447;DHT22;717;51.522;7.266;2024-03-02T11:52:36;17.10;99.90
1447;DHT22;717;51.522;7.266;2024-03-02T11:55:08;17.10;99.90
1447;DHT22;717;51.522;7.266;2024-03-02T11:57:39;17.20;99.90
1447;DHT22;717;51.522;7.266;2024-03-02T12:00:19;17.30;99.90
1447;DHT22;717;51.522;7.266;2024-03-02T12:03:00;17.30;99.90
1447;DHT22;717;51.522;7.266;2024-03-02T12:05:30;17.40;99.90
1447;DHT22;717;51.522;7.266;2024-03-02T12:08:02;17.40;99.90
1447;DHT22;717;51.522;7.266;2024-03-02T12:10:33;17.50;99.90
1447;DHT22;717;51.522;7.266;2024-03-02T12:13:05;17.50;99.90
1447;DHT22;717;51.522;7.266;2024-03-02T12:15:41;17.60;99.90
1447;DHT22;717;51.522;7.266;2024-03-02T12:18:11;17.70;99.90
1447;DHT22;717;51.522;7.266;2024-03-02T12:20:41;17.70;99.90
1447;DHT22;717;51.522;7.266;2024-03-02T12:23:11;17.70;99.90
1447;DHT22;717;51.522;7.266;2024-03-02T12:25:43;17.80;99.90
1447;DHT22;717;51.522;7.266;2024-03-02T12:28:13;17.90;99.90
1447;DHT22;717;51.522;7.266;2024-03-02T12:30:45;17.90;99.90
1447;DHT22;717;51.522;7.266;2024-03-02T12:33:16;18.00;99.90
1447;DHT22;717;51.522;7.266;2024-03-02T12:35:46;18.10;99.90
1447;DHT22;717;51.522;7.266;2024-03-02T12:38:18;18.00;99.90
1447;DHT22;717;51.522;7.266;2024-03-02T12:40:48;18.10;99.90
1447;DHT22;717;51.522;7.266;2024-03-02T12:43:19;18.00;99.90
1447;DHT22;717;51.522;7.266;2024-03-02T12:45:53;18.00;99.90
1447;DHT22;717;51.522;7.266;2024-03-02T12:48:24;17.90;99.90
1447;DHT22;717;51.522;7.266;2024-03-02T12:50:54;17.90;99.90
1447;DHT22;717;51.522;7.266;2024-03-02T12:53:24;17.90;99.90
1447;DHT22;717;51.522;7.266;2024-03-02T12:55:54;17.90;99.90
1447;DHT22;717;51.522;7.266;2024-03-02T12:58:25;17.80;99.90
1447;DHT22;717;51.522;7.266;2024-03-02T13:01:09;17.80;99.90
1447;DHT22;717;51.522;7.266;2024-03-02T13:03:42;17.80;99.90
1447;DHT22;717;51.522;7.266;2024-03-02T13:06:12;17.90;99.90
1447;DHT22;717;51.522;7.266;2024-03-02T13:08:42;17.90;99.90
1447;DHT22;717;51.522;7.266;2024-03-02T13:11:12;17.90;99.90
1447;DHT22;717;51.522;7.266;2024-03-02T13:13:42;17.90;99.90
1447;DHT22;717;51.522;7.266;2024-03-02T13:16:15;17.90;99.90
1447;DHT22;717;51.522;7.266;2024-03-02T13:18:55;17.80;99.90
1447;DHT22;717;51.522;7.266;2024-03-02T13:21:25;17.80;99.90
1447;DHT22;717;51.522;7.266;2024-03-02T13:23:55;17.80;99.90
1447;DHT22;717;51.522;7.266;2024-03-02T13:26:26;17.80;99.90
1447;DHT22;717;51.522;7.266;2024-03-02T13:28:56;17.80;99.90
1447;DHT22;717;51.522;7.266;2024-03-02T13:31:29;17.80;99.90
1447;DHT22;717;51.522;7.266;2024-03-02T13:33:59;17.80;99.90
1447;DHT22;717;51.522;7.266;2024-03-02T13:36:29;17.80;99.90
1447;DHT22;717;51.522;7.266;2024-03-02T13:38:59;17.80;99.90
1447;DHT22;717;51.522;7.266;2024-03-02T13:41:30;17.80;99.90
1447;DHT22;717;51.522;7.266;2024-03-02T13:44:00;17.80;99.90
1447;DHT22;717;51.522;7.266;2024-03-02T13:46:32;17.80;99.90
1447;DHT22;717;51.522;7.266;2024-03-02T13:49:03;17.80;99.90
1447;DHT22;717;51.522;7.266;2024-03-02T13:51:33;17.70;99.90
1447;DHT22;717;51.522;7.266;2024-03-02T13:54:03;17.70;99.90
1447;DHT22;717;51.522;7.266;2024-03-02T13:56:33;17.70;99.90
1447;DHT22;717;51.522;7.266;2024-03-02T13:59:06;17.70;99.90
1447;DHT22;717;51.522;7.266;2024-03-02T14:01:38;17.60;99.90
1447;DHT22;717;51.522;7.266;2024-03-02T14:04:09;17.60;99.90
1447;DHT22;717;51.522;7.266;2024-03-02T14:06:39;17.60;99.90
1447;DHT22;717;51.522;7.266;2024-03-02T14:09:10;17.60;99.90
1447;DHT22;717;51.522;7.266;2024-03-02T14:11:40;17.60;99.90
1447;DHT22;717;51.522;7.266;2024-03-02T14:14:10;17.60;99.90
1447;DHT22;717;51.522;7.266;2024-03-02T14:16:43;17.60;99.90
1447;DHT22;717;51.522;7.266;2024-03-02T14:19:13;17.60;99.90
1447;DHT22;717;51.522;7.266;2024-03-02T14:21:43;17.60;99.90
1447;DHT22;717;51.522;7.266;2024-03-02T14:24:14;17.60;99.90
1447;DHT22;717;51.522;7.266;2024-03-02T14:26:45;17.50;99.90
1447;DHT22;717;51.522;7.266;2024-03-02T14:29:15;17.50;99.90
1447;DHT22;717;51.522;7.266;2024-03-02T14:31:48;17.50;99.90
1447;DHT22;717;51.522;7.266;2024-03-02T14:34:18;17.50;99.90
1447;DHT22;717;51.522;7.266;2024-03-02T14:36:48;17.50;99.90
1447;DHT22;717;51.522;7.266;2024-03-02T14:39:18;17.50;99.90
1447;DHT22;717;51.522;7.266;2024-03-02T14:41:48;17.50;99.90
1447;DHT22;717;51.522;7.266;2024-03-02T14:44:18;17.50;99.90
1447;DHT22;717;51.522;7.266;2024-03-02T14:46:51;17.50;99.90
1447;DHT22;717;51.522;7.266;2024-03-02T14:49:21;17.50;99.90
1447;DHT22;717;51.522;7.266;2024-03-02T14:51:51;17.50;99.90
1447;DHT22;717;51.522;7.266;2024-03-02T14:54:21;17.50;99.90
1447;DHT22;717;51.522;7.266;2024-03-02T14:56:51;17.50;99.90
1447;DHT22;717;51.522;7.266;2024-03-02T14:59:21;17.50;99.90
1447;DHT22;717;51.522;7.266;2024-03-02T15:01:54;17.50;99.90
1447;DHT22;717;51.522;7.266;2024-03-02T15:04:24;17.50;99.90
1447;DHT22;717;51.522;7.266;2024-03-02T15:06:54;17.50;99.90
1447;DHT22;717;51.522;7.266;2024-03-02T15:09:24;17.40;99.90
1447;DHT22;717;51.522;7.266;2024-03-02T15:11:54;17.40;99.90
1447;DHT22;717;51.522;7.266;2024-03-02T15:14:24;17.40;99.90
1447;DHT22;717;51.522;7.266;2024-03-02T15:16:57;17.40;99.90
1447;DHT22;717;51.522;7.266;2024-03-02T15:19:27;17.40;99.90
1447;DHT22;717;51.522;7.266;2024-03-02T15:21:57;17.40;99.90
1447;DHT22;717;51.522;7.266;2024-03-02T15:24:28;17.40;99.90
1447;DHT22;717;51.522;7.266;2024-03-02T15:26:58;17.40;99.90
1447;DHT22;717;51.522;7.266;2024-03-02T15:29:31;17.40;99.90
1447;DHT22;717;51.522;7.266;2024-03-02T15:32:04;17.40;99.90
1447;DHT22;717;51.522;7.266;2024-03-02T15:34:34;17.40;99.90
1447;DHT22;717;51.522;7.266;2024-03-02T15:37:05;17.40;99.90
1447;DHT22;717;51.522;7.266;2024-03-02T15:39:35;17.30;99.90
1447;DHT22;717;51.522;7.266;2024-03-02T15:42:06;17.30;99.90
1447;DHT22;717;51.522;7.266;2024-03-02T15:44:36;17.30;99.90
1447;DHT22;717;51.522;7.266;2024-03-02T15:47:11;17.20;99.90
1447;DHT22;717;51.522;7.266;2024-03-02T15:49:41;17.30;99.90
1447;DHT22;717;51.522;7.266;2024-03-02T15:52:11;17.30;99.90
1447;DHT22;717;51.522;7.266;2024-03-02T15:54:45;17.30;99.90
1447;DHT22;717;51.522;7.266;2024-03-02T15:57:16;17.20;99.90
1447;DHT22;717;51.522;7.266;2024-03-02T15:59:46;17.20;99.90
1447;DHT22;717;51.522;7.266;2024-03-02T16:02:19;17.20;99.90
1447;DHT22;717;51.522;7.266;2024-03-02T16:04:49;17.20;99.90
1447;DHT22;717;51.522;7.266;2024-03-02T16:07:19;17.20;99.90
1447;DHT22;717;51.522;7.266;2024-03-02T16:09:49;17.20;99.90
1447;DHT22;717;51.522;7.266;2024-03-02T16:12:19;17.20;99.90
1447;DHT22;717;51.522;7.266;2024-03-02T16:14:49;17.20;99.90
1447;DHT22;717;51.522;7.266;2024-03-02T16:17:22;17.20;99.90
1447;DHT22;717;51.522;7.266;2024-03-02T16:19:52;17.20;99.90
1447;DHT22;717;51.522;7.266;2024-03-02T16:22:24;17.20;99.90
1447;DHT22;717;51.522;7.266;2024-03-02T16:24:54;17.20;99.90
1447;DHT22;717;51.522;7.266;2024-03-02T16:27:24;17.20;99.90
1447;DHT22;717;51.522;7.266;2024-03-02T16:29:55;17.20;99.90
1447;DHT22;717;51.522;7.266;2024-03-02T16:32:28;17.20;99.90
1447;DHT22;717;51.522;7.266;2024-03-02T16:34:58;17.20;99.90
1447;DHT22;717;51.522;7.266;2024-03-02T16:37:28;17.20;99.90
1447;DHT22;717;51.522;7.266;2024-03-02T16:39:58;17.20;99.90
1447;DHT22;717;51.522;7.266;2024-03-02T16:42:28;17.10;99.90
1447;DHT22;717;51.522;7.266;2024-03-02T16:44:58;17.20;99.90
1447;DHT22;717;51.522;7.266;2024-03-02T16:47:31;17.20;99.90